createdAt,value
2022-08-05T00:00:08.909Z,53.64379883
2022-08-05T00:01:20.611Z,52.16674805
2022-08-05T00:02:11.420Z,51.37329102
2022-08-05T00:03:15.706Z,51.07421875
2022-08-05T00:04:11.668Z,50.5859375
2022-08-05T00:06:01.798Z,50.68359375
2022-08-05T00:06:29.133Z,50.48217773
2022-08-05T00:07:26.764Z,50.38452148
2022-08-05T00:08:19.779Z,50.28686523
2022-08-05T00:09:19.593Z,50.09155273
2022-08-05T00:10:16.629Z,49.20043945
2022-08-05T00:11:20.526Z,48.21166992
2022-08-05T00:12:17.962Z,48.40698242
2022-08-05T00:13:19.816Z,48.70605469
2022-08-05T00:14:19.310Z,48.70605469
2022-08-05T00:15:55.851Z,48.90136719
2022-08-05T00:16:36.089Z,49.00512695
2022-08-05T00:17:22.082Z,48.01635742
2022-08-05T00:18:22.912Z,48.01635742
2022-08-05T00:19:24.920Z,48.80371094
2022-08-05T00:20:28.765Z,49.00512695
2022-08-05T00:21:24.757Z,49.2980957
2022-08-05T00:22:25.441Z,49.4934082
2022-08-05T00:23:44.199Z,49.2980957
2022-08-05T00:24:30.729Z,49.00512695
2022-08-05T00:25:27.488Z,48.90136719
2022-08-05T00:26:29.022Z,49.1027832
2022-08-05T00:27:35.780Z,49.2980957
2022-08-05T00:28:30.306Z,49.4934082
2022-08-05T00:29:37.610Z,49.2980957
2022-08-05T00:31:04.446Z,48.01635742
2022-08-05T00:32:10.642Z,48.01635742
2022-08-05T00:33:05.221Z,48.01635742
2022-08-05T00:34:55.195Z,47.91259766
2022-08-05T00:35:07.714Z,48.01635742
2022-08-05T00:36:16.237Z,48.21166992
2022-08-05T00:37:13.821Z,48.11401367
2022-08-05T00:38:09.596Z,47.91259766
2022-08-05T00:39:13.956Z,48.11401367
2022-08-05T00:40:10.915Z,48.30932617
2022-08-05T00:41:11.990Z,48.90136719
2022-08-05T00:42:12.333Z,48.30932617
2022-08-05T00:43:15.389Z,47.91259766
2022-08-05T00:44:13.658Z,47.91259766
2022-08-05T00:45:14.342Z,48.40698242
2022-08-05T00:46:15.590Z,48.51074219
2022-08-05T00:47:16.473Z,48.80371094
2022-08-05T00:48:17.066Z,48.40698242
2022-08-05T00:49:17.719Z,48.18725586
2022-08-05T00:50:20.795Z,48.28491211
2022-08-05T00:51:50.279Z,47.99194336
2022-08-05T00:52:28.310Z,48.18725586
2022-08-05T00:54:00.819Z,48.08959961
2022-08-05T00:54:21.705Z,48.11401367
2022-08-05T00:55:22.993Z,48.18725586
2022-08-05T00:56:24.588Z,48.38867188
2022-08-05T00:57:31.924Z,48.48632813
2022-08-05T00:58:27.660Z,48.48632813
2022-08-05T00:59:26.696Z,48.68164063
2022-08-05T01:00:27.585Z,48.48632813
2022-08-05T01:01:42.586Z,48.48632813
2022-08-05T01:02:29.092Z,48.38867188
2022-08-05T01:03:33.497Z,48.38867188
2022-08-05T01:04:31.073Z,48.58398438
2022-08-05T01:06:05.390Z,48.80371094
2022-08-05T01:07:05.230Z,48.90136719
2022-08-05T01:08:40.576Z,48.40698242
2022-08-05T01:09:05.606Z,48.70605469
2022-08-05T01:10:09.025Z,48.60839844
2022-08-05T01:11:07.798Z,48.60839844
2022-08-05T01:12:18.035Z,48.60839844
2022-08-05T01:13:13.399Z,48.70605469
2022-08-05T01:14:10.228Z,48.51074219
2022-08-05T01:15:35.667Z,48.60839844
2022-08-05T01:16:12.629Z,48.80371094
2022-08-05T01:17:13.381Z,48.70605469
2022-08-05T01:18:14.228Z,48.90136719
2022-08-05T01:19:14.926Z,49.00512695
2022-08-05T01:20:16.597Z,48.70605469
2022-08-05T01:21:22.742Z,49.00512695
2022-08-05T01:22:23.866Z,49.1027832
2022-08-05T01:23:22.766Z,49.4934082
2022-08-05T01:24:19.621Z,49.1027832
2022-08-05T01:25:20.319Z,48.90136719
2022-08-05T01:26:21.595Z,48.80371094
2022-08-05T01:27:22.398Z,49.00512695
2022-08-05T01:28:23.254Z,49.2980957
2022-08-05T01:29:24.021Z,49.20043945
2022-08-05T01:30:34.901Z,49.20043945
2022-08-05T01:31:25.412Z,49.20043945
2022-08-05T01:32:27.716Z,49.2980957
2022-08-05T01:33:27.009Z,49.4934082
2022-08-05T01:34:27.723Z,49.89013672
2022-08-05T01:35:50.780Z,49.79248047
2022-08-05T01:36:29.651Z,49.79248047
2022-08-05T01:37:31.298Z,49.71923828
2022-08-05T01:39:03.363Z,49.62158203
2022-08-05T01:40:03.698Z,49.81689453
2022-08-05T01:41:04.328Z,50.1159668
2022-08-05T01:42:05.052Z,50.01220703
2022-08-05T01:43:05.871Z,50.21362305
2022-08-05T01:44:06.685Z,50.21362305
2022-08-05T01:45:08.146Z,50.21362305
2022-08-05T01:46:16.246Z,50.21362305
2022-08-05T01:47:09.590Z,50.61035156
2022-08-05T01:48:10.558Z,50.80566406
2022-08-05T01:49:23.246Z,50.70800781
2022-08-05T01:50:15.291Z,50.80566406
2022-08-05T01:51:13.230Z,50.80566406
2022-08-05T01:52:17.794Z,51.02539063
2022-08-05T01:53:15.430Z,51.02539063
2022-08-05T01:54:18.072Z,51.02539063
2022-08-05T01:55:16.972Z,51.12915039
2022-08-05T01:58:11.437Z,51.32446289
2022-08-05T01:58:12.246Z,51.51977539
2022-08-05T01:58:40.555Z,51.22680664
2022-08-05T01:59:20.523Z,51.42211914
2022-08-05T02:00:30.644Z,51.32446289
2022-08-05T02:01:25.471Z,51.32446289
2022-08-05T02:02:26.193Z,51.32446289
2022-08-05T02:03:31.785Z,51.42211914
2022-08-05T02:04:25.512Z,51.62353516
2022-08-05T02:05:25.909Z,51.62353516
2022-08-05T02:06:38.176Z,51.91650391
2022-08-05T02:07:30.402Z,51.91650391
2022-08-05T02:08:30.918Z,51.72119141
2022-08-05T02:09:29.559Z,52.01416016
2022-08-05T02:11:01.144Z,52.21557617
2022-08-05T02:12:02.626Z,52.31323242
2022-08-05T02:13:04.768Z,52.31323242
2022-08-05T02:14:04.148Z,52.43530273
2022-08-05T02:15:04.956Z,52.43530273
2022-08-05T02:16:05.679Z,52.5390625
2022-08-05T02:17:07.342Z,52.734375
2022-08-05T02:18:27.759Z,52.63671875
2022-08-05T02:19:08.528Z,52.83203125
2022-08-05T02:20:09.320Z,52.734375
2022-08-05T02:21:14.652Z,52.734375
2022-08-05T02:22:25.685Z,52.9296875
2022-08-05T02:23:13.502Z,53.03344727
2022-08-05T02:24:13.956Z,52.9296875
2022-08-05T02:25:14.795Z,52.9296875
2022-08-05T02:26:15.557Z,53.03344727
2022-08-05T02:27:16.991Z,53.13110352
2022-08-05T02:28:28.259Z,53.03344727
2022-08-05T02:29:21.596Z,53.03344727
2022-08-05T02:30:19.268Z,53.03344727
2022-08-05T02:31:21.059Z,53.13110352
2022-08-05T02:32:24.175Z,53.22875977
2022-08-05T02:33:24.345Z,53.32641602
2022-08-05T02:34:23.216Z,54.14428711
2022-08-05T02:35:28.034Z,54.04663086
2022-08-05T02:36:24.794Z,54.04663086
2022-08-05T02:37:26.490Z,53.94897461
2022-08-05T02:38:27.182Z,53.74755859
2022-08-05T02:39:27.961Z,53.74755859
2022-08-05T02:40:28.783Z,53.94897461
2022-08-05T02:41:43.424Z,53.94897461
2022-08-05T02:43:00.571Z,54.04663086
2022-08-05T02:44:06.299Z,53.85131836
2022-08-05T02:45:02.063Z,53.85131836
2022-08-05T02:46:02.844Z,53.74755859
2022-08-05T02:47:04.646Z,53.94897461
2022-08-05T02:48:11.753Z,53.94897461
2022-08-05T02:49:06.072Z,54.04663086
2022-08-05T02:50:06.784Z,54.24194336
2022-08-05T02:51:07.598Z,54.34570313
2022-08-05T02:52:08.652Z,54.24194336
2022-08-05T02:53:11.698Z,54.24194336
2022-08-05T02:54:09.706Z,54.34570313
2022-08-05T02:55:10.917Z,54.34570313
2022-08-05T02:56:15.972Z,54.34570313
2022-08-05T02:58:10.569Z,54.34570313
2022-08-05T02:58:14.161Z,54.24194336
2022-08-05T02:59:14.781Z,54.14428711
2022-08-05T03:00:15.468Z,54.24194336
2022-08-05T03:01:17.320Z,54.14428711
2022-08-05T03:02:17.986Z,54.04663086
2022-08-05T03:03:18.683Z,54.34570313
2022-08-05T03:04:19.360Z,54.44335938
2022-08-05T03:05:21.856Z,54.34570313
2022-08-05T03:06:53.706Z,54.34570313
2022-08-05T03:07:40.315Z,54.44335938
2022-08-05T03:08:27.193Z,54.14428711
2022-08-05T03:09:27.162Z,54.27246094
2022-08-05T03:10:25.159Z,54.37011719
2022-08-05T03:11:55.184Z,54.46777344
2022-08-05T03:12:26.656Z,54.56542969
2022-08-05T03:13:27.751Z,54.46777344
2022-08-05T03:14:28.098Z,54.56542969
2022-08-05T03:15:28.809Z,54.7668457
2022-08-05T03:17:02.124Z,54.86450195
2022-08-05T03:18:01.967Z,54.7668457
2022-08-05T03:19:04.274Z,54.7668457
2022-08-05T03:20:03.375Z,54.86450195
2022-08-05T03:21:04.024Z,54.86450195
2022-08-05T03:22:16.286Z,54.86450195
2022-08-05T03:23:05.622Z,54.86450195
2022-08-05T03:24:07.145Z,55.05981445
2022-08-05T03:25:33.788Z,55.05981445
2022-08-05T03:26:31.436Z,55.16357422
2022-08-05T03:27:10.220Z,55.16357422
2022-08-05T03:28:10.984Z,55.16357422
2022-08-05T03:29:13.100Z,55.26123047
2022-08-05T03:30:13.793Z,55.16357422
2022-08-05T03:31:25.879Z,55.26123047
2022-08-05T03:32:15.472Z,55.05981445
2022-08-05T03:33:16.083Z,55.16357422
2022-08-05T03:34:16.856Z,55.16357422
2022-08-05T03:35:17.544Z,55.16357422
2022-08-05T03:36:27.939Z,55.35888672
2022-08-05T03:37:20.947Z,55.35888672
2022-08-05T03:38:32.644Z,55.45654297
2022-08-05T03:39:27.264Z,55.35888672
2022-08-05T03:40:31.353Z,55.26123047
2022-08-05T03:41:23.747Z,55.45654297
2022-08-05T03:42:27.171Z,55.3894043
2022-08-05T03:44:08.790Z,55.45654297
2022-08-05T03:44:25.952Z,55.3894043
2022-08-05T03:45:26.683Z,55.28564453
2022-08-05T03:46:29.642Z,55.48706055
2022-08-05T03:47:35.186Z,55.88378906
2022-08-05T03:48:59.897Z,55.98144531
2022-08-05T03:50:00.652Z,56.07910156
2022-08-05T03:52:38.608Z,55.88378906
2022-08-05T03:52:48.404Z,55.88378906
2022-08-05T03:55:00.349Z,55.7800293
2022-08-05T03:55:50.114Z,55.7800293
2022-08-05T03:56:04.781Z,56.07910156
2022-08-05T03:56:17.997Z,56.07910156
2022-08-05T03:57:16.029Z,56.28051758
2022-08-05T03:58:08.181Z,56.17675781
2022-08-05T03:59:08.932Z,55.98144531
2022-08-05T04:00:09.691Z,56.17675781
2022-08-05T04:01:11.269Z,56.37817383
2022-08-05T04:02:17.314Z,56.28051758
2022-08-05T04:03:26.758Z,56.37817383
2022-08-05T04:04:13.307Z,56.28051758
2022-08-05T04:05:14.102Z,55.88378906
2022-08-05T04:06:15.637Z,55.98144531
2022-08-05T04:07:16.415Z,56.20727539
2022-08-05T04:08:30.396Z,56.30493164
2022-08-05T04:09:20.412Z,56.60400391
2022-08-05T04:10:19.408Z,56.60400391
2022-08-05T04:11:19.991Z,57.02514648
2022-08-05T04:12:24.409Z,57.32421875
2022-08-05T04:13:21.465Z,57.52563477
2022-08-05T04:14:30.147Z,57.94677734
2022-08-05T04:15:24.346Z,58.47167969
2022-08-05T04:16:24.362Z,58.77075195
2022-08-05T04:17:25.450Z,59.19189453
2022-08-05T04:18:25.826Z,59.4909668
2022-08-05T04:19:26.634Z,59.4909668
2022-08-05T04:20:27.449Z,59.72290039
2022-08-05T04:22:08.748Z,59.61914063
2022-08-05T04:22:59.281Z,59.61914063
2022-08-05T04:24:05.618Z,59.72290039
2022-08-05T04:25:00.805Z,59.61914063
2022-08-05T04:26:02.077Z,59.39331055
2022-08-05T04:27:02.822Z,59.2956543
2022-08-05T04:28:06.042Z,59.19189453
2022-08-05T04:29:07.180Z,59.2956543
2022-08-05T04:30:05.961Z,59.42382813
2022-08-05T04:31:10.432Z,59.72290039
2022-08-05T04:32:08.388Z,59.72290039
2022-08-05T04:33:09.022Z,59.72290039
2022-08-05T04:34:31.369Z,59.91821289
2022-08-05T04:35:17.768Z,59.94873047
2022-08-05T04:36:45.287Z,59.94873047
2022-08-05T04:37:12.929Z,59.91821289
2022-08-05T04:38:15.482Z,59.82055664
2022-08-05T04:39:15.230Z,59.82055664
2022-08-05T04:40:19.416Z,59.52148438
2022-08-05T04:41:16.770Z,59.32006836
2022-08-05T04:42:17.588Z,59.22241211
2022-08-05T04:43:18.280Z,59.09423828
2022-08-05T04:44:29.064Z,59.22241211
2022-08-05T04:45:22.889Z,59.32006836
2022-08-05T04:46:28.512Z,59.22241211
2022-08-05T04:47:21.714Z,59.22241211
2022-08-05T04:48:27.719Z,59.32006836
2022-08-05T04:49:24.582Z,59.42382813
2022-08-05T04:50:37.270Z,59.32006836
2022-08-05T04:51:24.783Z,58.99658203
2022-08-05T04:52:27.601Z,59.09423828
2022-08-05T04:53:26.827Z,58.99658203
2022-08-05T04:54:27.524Z,58.89892578
2022-08-05T04:56:32.931Z,58.79516602
2022-08-05T04:56:59.974Z,58.89892578
2022-08-05T04:58:01.714Z,58.92333984
2022-08-05T04:59:21.680Z,58.99658203
2022-08-05T05:00:03.076Z,59.09423828
2022-08-05T05:01:03.846Z,59.2956543
2022-08-05T05:02:07.773Z,59.59472656
2022-08-05T05:03:05.529Z,59.59472656
2022-08-05T05:04:06.189Z,59.69238281
2022-08-05T05:05:16.929Z,59.69238281
2022-08-05T05:06:39.126Z,59.79003906
2022-08-05T05:07:09.342Z,59.59472656
2022-08-05T05:08:14.378Z,59.69238281
2022-08-05T05:09:14.154Z,59.56420898
2022-08-05T05:10:12.351Z,59.46655273
2022-08-05T05:11:15.204Z,59.46655273
2022-08-05T05:12:13.866Z,59.06982422
2022-08-05T05:13:14.610Z,59.06982422
2022-08-05T05:14:15.258Z,58.94165039
2022-08-05T05:15:17.330Z,58.64257813
2022-08-05T05:16:16.620Z,58.74023438
2022-08-05T05:17:23.372Z,58.54492188
2022-08-05T05:18:28.221Z,58.34350586
2022-08-05T05:19:26.507Z,58.34350586
2022-08-05T05:20:21.131Z,58.34350586
2022-08-05T05:21:21.955Z,58.34350586
2022-08-05T05:22:26.103Z,58.44116211
2022-08-05T05:23:23.631Z,58.24584961
2022-08-05T05:24:56.415Z,58.24584961
2022-08-05T05:25:40.365Z,58.11767578
2022-08-05T05:26:28.165Z,58.02001953
2022-08-05T05:27:44.348Z,57.92236328
2022-08-05T05:28:58.792Z,57.81860352
2022-08-05T05:30:04.197Z,57.92236328
2022-08-05T05:31:00.199Z,57.92236328
2022-08-05T05:32:00.898Z,58.11767578
2022-08-05T05:33:09.148Z,58.02001953
2022-08-05T05:34:03.215Z,57.62329102
2022-08-05T05:35:04.022Z,57.32421875
2022-08-05T05:36:04.716Z,57.39746094
2022-08-05T05:37:05.486Z,57.09838867
2022-08-05T05:38:09.161Z,57.09838867
2022-08-05T05:39:09.466Z,57.09838867
2022-08-05T05:40:08.712Z,56.90307617
2022-08-05T05:41:09.378Z,56.90307617
2022-08-05T05:42:10.709Z,56.60400391
2022-08-05T05:43:11.609Z,56.70166016
2022-08-05T05:44:35.860Z,56.79931641
2022-08-05T05:45:14.173Z,56.79931641
2022-08-05T05:46:17.258Z,56.60400391
2022-08-05T05:47:21.989Z,56.70166016
2022-08-05T05:48:16.323Z,56.79931641
2022-08-05T05:49:22.965Z,57.00073242
2022-08-05T05:50:19.741Z,57.09838867
2022-08-05T05:51:18.471Z,57.09838867
2022-08-05T05:52:28.703Z,57.29370117
2022-08-05T05:53:21.007Z,57.29370117
2022-08-05T05:54:20.765Z,57.39746094
2022-08-05T05:55:21.541Z,57.49511719
2022-08-05T05:56:26.226Z,57.19604492
2022-08-05T05:57:23.117Z,57.19604492
2022-08-05T05:58:30.308Z,57.46459961
2022-08-05T05:59:25.398Z,57.66601563
2022-08-05T06:00:27.823Z,57.76367188
2022-08-05T06:01:58.237Z,57.86132813
2022-08-05T06:02:58.930Z,57.66601563
2022-08-05T06:04:02.077Z,57.56835938
2022-08-05T06:05:01.381Z,57.73925781
2022-08-05T06:06:01.262Z,57.63549805
2022-08-05T06:07:02.742Z,57.44018555
2022-08-05T06:08:04.235Z,57.3425293
2022-08-05T06:09:05.038Z,57.04345703
2022-08-05T06:10:09.732Z,57.14111328
2022-08-05T06:11:06.629Z,57.5378418
2022-08-05T06:12:09.638Z,57.3425293
2022-08-05T06:13:08.060Z,57.44018555
2022-08-05T06:14:08.885Z,57.44018555
2022-08-05T06:15:12.400Z,57.31201172
2022-08-05T06:16:29.920Z,57.31201172
2022-08-05T06:17:24.254Z,57.31201172
2022-08-05T06:18:13.228Z,57.21435547
2022-08-05T06:19:14.026Z,57.11669922
2022-08-05T06:20:21.398Z,56.7199707
2022-08-05T06:21:16.663Z,56.7199707
2022-08-05T06:22:16.248Z,56.9152832
2022-08-05T06:23:16.917Z,57.01904297
2022-08-05T06:24:18.601Z,57.31201172
2022-08-05T06:25:25.136Z,57.31201172
2022-08-05T06:26:21.420Z,57.01904297
2022-08-05T06:28:12.749Z,56.9152832
2022-08-05T06:28:22.407Z,57.01904297
2022-08-05T06:29:25.377Z,57.01904297
2022-08-05T06:30:23.745Z,57.11669922
2022-08-05T06:31:30.530Z,57.31201172
2022-08-05T06:32:29.220Z,57.21435547
2022-08-05T06:33:33.362Z,57.61108398
2022-08-05T06:34:58.800Z,57.40966797
2022-08-05T06:36:05.677Z,57.11669922
2022-08-05T06:37:00.326Z,57.11669922
2022-08-05T06:38:09.999Z,57.31201172
2022-08-05T06:39:02.423Z,57.51342773
2022-08-05T06:40:03.727Z,57.80639648
2022-08-05T06:41:04.510Z,58.0078125
2022-08-05T06:42:05.212Z,58.0078125
2022-08-05T06:43:06.052Z,57.80639648
2022-08-05T06:44:06.549Z,57.40966797
2022-08-05T06:45:08.705Z,57.01904297
2022-08-05T06:46:08.085Z,57.11669922
2022-08-05T06:47:10.337Z,57.31201172
2022-08-05T06:48:36.146Z,57.21435547
2022-08-05T06:49:12.137Z,57.11669922
2022-08-05T06:50:12.104Z,57.40966797
2022-08-05T06:51:26.587Z,57.70874023
2022-08-05T06:52:36.655Z,57.61108398
2022-08-05T06:53:22.679Z,57.40966797
2022-08-05T06:54:18.123Z,57.51342773
2022-08-05T06:55:15.897Z,57.51342773
2022-08-05T06:56:26.432Z,57.21435547
2022-08-05T06:58:02.610Z,57.11669922
2022-08-05T06:58:20.326Z,57.11669922
2022-08-05T06:59:19.354Z,57.31201172
2022-08-05T07:00:24.551Z,57.40966797
2022-08-05T07:01:21.648Z,57.40966797
2022-08-05T07:02:22.907Z,57.51342773
2022-08-05T07:03:28.040Z,57.40966797
2022-08-05T07:04:23.743Z,57.70874023
2022-08-05T07:05:37.494Z,57.80639648
2022-08-05T07:06:25.364Z,57.90405273
2022-08-05T07:07:57.596Z,58.0078125
2022-08-05T07:08:59.231Z,58.10546875
2022-08-05T07:09:59.745Z,58.30078125
2022-08-05T07:11:02.020Z,58.203125
2022-08-05T07:12:01.974Z,58.59985352
2022-08-05T07:13:02.761Z,58.40454102
2022-08-05T07:14:03.476Z,58.30078125
2022-08-05T07:15:04.134Z,57.97729492
2022-08-05T07:16:04.982Z,57.67822266
2022-08-05T07:17:58.677Z,57.28759766
2022-08-05T07:18:09.589Z,57.08618164
2022-08-05T07:19:08.567Z,57.08618164
2022-08-05T07:20:33.780Z,56.98852539
2022-08-05T07:21:10.087Z,56.79321289
2022-08-05T07:22:10.958Z,56.89086914
2022-08-05T07:23:13.112Z,57.08618164
2022-08-05T07:24:12.507Z,57.18383789
2022-08-05T07:25:54.122Z,57.28759766
2022-08-05T07:26:15.018Z,57.18383789
2022-08-05T07:27:14.898Z,57.08618164
2022-08-05T07:28:17.264Z,57.18383789
2022-08-05T07:29:17.389Z,57.38525391
2022-08-05T07:30:27.639Z,57.58056641
2022-08-05T07:31:19.904Z,57.38525391
2022-08-05T07:32:24.265Z,57.28759766
2022-08-05T07:33:36.541Z,57.18383789
2022-08-05T07:34:28.372Z,57.18383789
2022-08-05T07:36:01.695Z,57.08618164
2022-08-05T07:36:24.149Z,56.89086914
2022-08-05T07:37:28.885Z,56.79321289
2022-08-05T07:38:33.288Z,56.49414063
2022-08-05T07:40:04.716Z,56.79321289
2022-08-05T07:41:01.461Z,57.18383789
2022-08-05T07:42:08.542Z,57.08618164
2022-08-05T07:42:59.806Z,57.58056641
2022-08-05T07:44:00.588Z,57.06176758
2022-08-05T07:45:02.248Z,57.06176758
2022-08-05T07:46:02.871Z,56.66503906
2022-08-05T07:47:07.823Z,56.46362305
2022-08-05T07:48:05.140Z,56.46362305
2022-08-05T07:49:07.938Z,56.56738281
2022-08-05T07:50:07.434Z,57.06176758
2022-08-05T07:51:23.018Z,57.06176758
2022-08-05T07:52:08.864Z,57.45849609
2022-08-05T07:53:09.685Z,57.15942383
2022-08-05T07:54:11.496Z,57.25708008
2022-08-05T07:55:15.766Z,56.46362305
2022-08-05T07:57:00.202Z,56.53686523
2022-08-05T07:57:22.812Z,56.43920898
2022-08-05T07:58:54.506Z,56.04248047
2022-08-05T07:59:15.657Z,55.94482422
2022-08-05T08:00:16.331Z,55.84716797
2022-08-05T08:01:17.592Z,55.15136719
2022-08-05T08:02:18.407Z,55.52368164
2022-08-05T08:03:19.077Z,55.52368164
2022-08-05T08:04:34.330Z,55.22460938
2022-08-05T08:05:20.704Z,55.42602539
2022-08-05T08:06:22.269Z,54.93164063
2022-08-05T08:07:23.381Z,54.13818359
2022-08-05T08:08:23.744Z,54.63256836
2022-08-05T08:09:25.148Z,54.73022461
2022-08-05T08:10:26.347Z,54.93164063
2022-08-05T08:12:01.832Z,55.32836914
2022-08-05T08:12:58.874Z,55.42602539
2022-08-05T08:14:01.195Z,55.52368164
2022-08-05T08:15:02.153Z,55.42602539
2022-08-05T08:16:34.856Z,55.10253906
2022-08-05T08:17:01.719Z,54.8034668
2022-08-05T08:18:04.251Z,54.6081543
2022-08-05T08:19:03.752Z,54.8034668
2022-08-05T08:20:22.670Z,55.00488281
2022-08-05T08:21:05.185Z,55.00488281
2022-08-05T08:22:05.884Z,54.6081543
2022-08-05T08:23:06.703Z,54.70581055
2022-08-05T08:24:13.571Z,54.90112305
2022-08-05T08:25:16.062Z,54.90112305
2022-08-05T08:26:10.247Z,54.70581055
2022-08-05T08:27:10.851Z,54.4128418
2022-08-05T08:28:18.969Z,54.21142578
2022-08-05T08:29:45.299Z,54.51049805
2022-08-05T08:30:27.603Z,54.8034668
2022-08-05T08:31:17.441Z,54.30908203
2022-08-05T08:32:15.521Z,54.6081543
2022-08-05T08:33:17.101Z,54.51049805
2022-08-05T08:34:18.759Z,54.30908203
2022-08-05T08:35:18.617Z,54.4128418
2022-08-05T08:36:39.187Z,54.51049805
2022-08-05T08:37:19.969Z,54.73022461
2022-08-05T08:38:36.166Z,54.73022461
2022-08-05T08:39:22.458Z,55.12695313
2022-08-05T08:40:23.751Z,55.12695313
2022-08-05T08:41:26.180Z,55.10253906
2022-08-05T08:42:32.341Z,55.10253906
2022-08-05T08:45:18.027Z,54.90112305
2022-08-05T08:45:24.775Z,54.70581055
2022-08-05T08:45:58.227Z,55.39550781
2022-08-05T08:46:58.908Z,55.39550781
2022-08-05T08:48:06.964Z,55.39550781
2022-08-05T08:50:07.776Z,55.59692383
2022-08-05T08:50:12.950Z,55.20019531
2022-08-05T08:51:54.649Z,55.20019531
2022-08-05T08:52:13.079Z,55.20019531
2022-08-05T08:53:08.113Z,55.29785156
2022-08-05T08:54:06.279Z,55.69458008
2022-08-05T08:55:13.157Z,55.49316406
2022-08-05T08:56:07.849Z,55.39550781
2022-08-05T08:57:11.362Z,55.49316406
2022-08-05T08:58:10.101Z,55.10253906
2022-08-05T08:59:14.980Z,55.20019531
2022-08-05T09:00:12.513Z,54.90112305
2022-08-05T09:01:16.867Z,54.70581055
2022-08-05T09:02:14.745Z,55.00488281
2022-08-05T09:03:16.253Z,55.39550781
2022-08-05T09:04:16.140Z,55.29785156
2022-08-05T09:05:18.321Z,55.49316406
2022-08-05T09:06:21.229Z,55.10253906
2022-08-05T09:07:28.209Z,55.10253906
2022-08-05T09:08:19.597Z,55.69458008
2022-08-05T09:09:20.346Z,55.49316406
2022-08-05T09:10:21.759Z,55.69458008
2022-08-05T09:11:51.759Z,55.29785156
2022-08-05T09:12:27.785Z,54.97436523
2022-08-05T09:13:23.926Z,53.99169922
2022-08-05T09:14:57.954Z,54.47998047
2022-08-05T09:15:56.228Z,54.47998047
2022-08-05T09:16:57.010Z,54.47998047
2022-08-05T09:17:57.813Z,54.47998047
2022-08-05T09:18:59.495Z,54.68139648
2022-08-05T09:20:02.461Z,54.38232422
2022-08-05T09:21:00.875Z,53.49731445
2022-08-05T09:22:22.143Z,53.19824219
2022-08-05T09:23:05.259Z,53.49731445
2022-08-05T09:24:03.001Z,53.19824219
2022-08-05T09:25:14.027Z,52.50854492
2022-08-05T09:26:06.182Z,52.41088867
2022-08-05T09:27:04.929Z,52.50854492
2022-08-05T09:28:06.447Z,52.11181641
2022-08-05T09:29:06.175Z,52.31323242
2022-08-05T09:30:07.571Z,52.28271484
2022-08-05T09:31:22.173Z,51.89208984
2022-08-05T09:32:40.965Z,51.79443359
2022-08-05T09:33:10.623Z,51.59301758
2022-08-05T09:34:11.499Z,50.80566406
2022-08-05T09:35:12.273Z,50.90332031
2022-08-05T09:36:16.697Z,50.70800781
2022-08-05T09:37:15.098Z,51.49536133
2022-08-05T09:38:18.272Z,52.28271484
2022-08-05T09:39:16.756Z,52.67944336
2022-08-05T09:40:17.273Z,52.58178711
2022-08-05T09:41:17.971Z,51.89208984
2022-08-05T09:42:24.166Z,51.20239258
2022-08-05T09:43:19.973Z,51.20239258
2022-08-05T09:44:20.576Z,51.47094727
2022-08-05T09:46:06.908Z,52.06298828
2022-08-05T09:46:22.063Z,51.77001953
2022-08-05T09:47:22.822Z,50.68359375
2022-08-05T09:48:23.533Z,50.09155273
2022-08-05T09:49:24.144Z,50.18920898
2022-08-05T09:50:55.865Z,50.48828125
2022-08-05T09:51:56.572Z,51.07421875
2022-08-05T09:52:57.239Z,50.68359375
2022-08-05T09:53:59.110Z,50.28686523
2022-08-05T09:54:59.333Z,50.46386719
2022-08-05T09:56:04.556Z,50.65917969
2022-08-05T09:57:01.722Z,50.85449219
2022-08-05T09:58:01.631Z,51.54418945
2022-08-05T09:59:04.071Z,51.73950195
2022-08-05T10:00:07.562Z,51.84326172
2022-08-05T10:01:13.506Z,51.94091797
2022-08-05T10:02:05.090Z,52.11181641
2022-08-05T10:03:06.785Z,51.22680664
2022-08-05T10:04:10.243Z,51.02539063
2022-08-05T10:05:08.103Z,50.33569336
2022-08-05T10:06:15.524Z,49.15771484
2022-08-05T10:07:20.082Z,49.35302734
2022-08-05T10:08:37.653Z,49.74975586
2022-08-05T10:09:27.489Z,50.43945313
2022-08-05T10:10:14.776Z,50.53710938
2022-08-05T10:11:13.308Z,50.1159668
2022-08-05T10:12:31.020Z,50.01831055
2022-08-05T10:13:15.662Z,49.42626953
2022-08-05T10:14:16.463Z,49.23095703
2022-08-05T10:15:20.620Z,49.13330078
2022-08-05T10:16:17.997Z,49.23095703
2022-08-05T10:17:37.641Z,49.10888672
2022-08-05T10:18:20.457Z,48.22387695
2022-08-05T10:19:23.836Z,48.91357422
2022-08-05T10:20:22.625Z,49.01123047
2022-08-05T10:21:23.385Z,48.02856445
2022-08-05T10:22:29.751Z,47.92480469
2022-08-05T10:24:00.378Z,47.92480469
2022-08-05T10:24:56.785Z,46.62475586
2022-08-05T10:25:57.522Z,46.62475586
2022-08-05T10:27:00.550Z,46.62475586
2022-08-05T10:28:13.599Z,46.72241211
2022-08-05T10:28:59.828Z,47.11914063
2022-08-05T10:31:20.141Z,47.50976563
2022-08-05T10:32:54.654Z,47.50976563
2022-08-05T10:33:00.859Z,47.41210938
2022-08-05T10:33:04.940Z,46.69799805
2022-08-05T10:34:06.999Z,46.89941406
2022-08-05T10:35:05.603Z,46.99707031
2022-08-05T10:36:06.235Z,46.2097168
2022-08-05T10:37:07.153Z,45.61767578
2022-08-05T10:38:08.400Z,45.42236328
2022-08-05T10:39:11.665Z,45.22705078
2022-08-05T10:40:17.565Z,44.92797852
2022-08-05T10:41:12.371Z,44.92797852
2022-08-05T10:42:11.792Z,45.12939453
2022-08-05T10:43:12.638Z,45.42236328
2022-08-05T10:44:13.268Z,45.12939453
2022-08-05T10:45:23.299Z,44.31762695
2022-08-05T10:46:14.726Z,44.31762695
2022-08-05T10:47:26.789Z,44.61669922
2022-08-05T10:48:31.761Z,44.12231445
2022-08-05T10:49:17.151Z,44.90966797
2022-08-05T10:50:33.237Z,45.20263672
2022-08-05T10:51:22.375Z,45.10498047
2022-08-05T10:52:20.408Z,44.90966797
2022-08-05T10:53:21.142Z,44.4152832
2022-08-05T10:54:28.331Z,44.0246582
2022-08-05T10:55:22.466Z,44.2199707
2022-08-05T10:56:25.903Z,44.59228516
2022-08-05T10:57:24.346Z,44.00634766
2022-08-05T10:58:55.453Z,43.12133789
2022-08-05T11:00:02.696Z,43.21899414
2022-08-05T11:01:03.122Z,43.12133789
2022-08-05T11:02:05.158Z,42.91992188
2022-08-05T11:02:59.192Z,43.12133789
2022-08-05T11:04:00.647Z,43.02368164
2022-08-05T11:05:01.239Z,42.62695313
2022-08-05T11:06:03.862Z,42.82226563
2022-08-05T11:07:02.689Z,42.43164063
2022-08-05T11:08:17.091Z,42.52929688